Time;durP1;ratioP1;P1;durP2;ratioP2;P2;SDS_P1;SDS_P2;PMS_P1;PMS_P2;Temp;Humidity;BMP_temperature;BMP_pressure;BME280_temperature;BME280_humidity;BME280_pressure;Samples;Min_cycle;Max_cycle;Signal;HPM_P1;HPM_P2
2022/10/29 00:00:21;;;;;;;163.07;13.90;;;;;;;;;;6272383;22;20023;-87
2022/10/29 00:02:47;;;;;;;247.82;13.68;;;;;;;;;;6271644;22;20356;-87
2022/10/29 00:05:13;;;;;;;199.00;12.20;;;;;;;;;;6196076;22;20043;-88
2022/10/29 00:07:39;;;;;;;122.15;11.95;;;;;;;;;;6244864;22;20027;-86
2022/10/29 00:10:06;;;;;;;109.47;11.43;;;;;;;;;;6246769;22;20020;-86
2022/10/29 00:12:32;;;;;;;109.70;10.80;;;;;;;;;;6194156;22;20026;-87
2022/10/29 00:14:58;;;;;;;98.55;11.63;;;;;;;;;;6220909;22;20117;-87
2022/10/29 00:17:24;;;;;;;148.38;12.50;;;;;;;;;;6244393;22;20034;-87
2022/10/29 00:19:50;;;;;;;69.75;10.18;;;;;;;;;;6274169;22;20015;-87
2022/10/29 00:22:16;;;;;;;85.30;10.68;;;;;;;;;;6245551;22;20015;-87
2022/10/29 00:24:42;;;;;;;110.95;9.93;;;;;;;;;;6245821;22;20023;-86
2022/10/29 00:27:11;;;;;;;191.07;10.77;;;;;;;;;;6272447;22;20348;-87
2022/10/29 00:29:43;;;;;;;273.85;9.23;;;;;;;;;;6271525;22;20398;-86
2022/10/29 00:32:09;;;;;;;319.38;12.43;;;;;;;;;;6272637;22;20020;-86
2022/10/29 00:34:36;;;;;;;260.48;10.15;;;;;;;;;;6219576;22;20027;-86
2022/10/29 00:37:03;;;;;;;223.10;10.57;;;;;;;;;;6245221;22;20051;-86
2022/10/29 00:39:29;;;;;;;199.23;10.15;;;;;;;;;;6267111;22;20031;-87
2022/10/29 00:41:55;;;;;;;142.13;9.07;;;;;;;;;;6193100;22;20392;-88
2022/10/29 00:44:24;;;;;;;142.95;9.15;;;;;;;;;;6215464;22;20016;-86
2022/10/29 00:47:02;;;;;;;95.70;10.23;;;;;;;;;;6218379;22;20042;-87
2022/10/29 00:49:29;;;;;;;164.77;9.43;;;;;;;;;;6215873;22;20491;-88
2022/10/29 00:51:56;;;;;;;142.07;9.38;;;;;;;;;;6193254;22;20043;-87
2022/10/29 00:54:22;;;;;;;66.75;9.00;;;;;;;;;;6188560;22;20086;-88
2022/10/29 00:57:11;;;;;;;83.75;10.05;;;;;;;;;;6192478;22;20023;-88
2022/10/29 00:59:37;;;;;;;141.65;11.65;;;;;;;;;;6226267;22;20444;-88
2022/10/29 01:02:03;;;;;;;87.90;9.77;;;;;;;;;;6192334;22;20034;-87
2022/10/29 01:04:48;;;;;;;149.93;11.27;;;;;;;;;;6244397;22;20015;-87
2022/10/29 01:07:23;;;;;;;208.57;12.40;;;;;;;;;;6264196;22;20453;-86
2022/10/29 01:09:52;;;;;;;360.65;15.60;;;;;;;;;;6242631;22;20047;-87
2022/10/29 01:12:25;;;;;;;300.75;12.43;;;;;;;;;;6243755;22;20111;-88
2022/10/29 01:15:00;;;;;;;314.00;12.63;;;;;;;;;;6238867;22;20016;-87
2022/10/29 01:17:41;;;;;;;261.67;13.15;;;;;;;;;;6243911;22;20082;-87
2022/10/29 01:20:22;;;;;;;229.60;13.32;;;;;;;;;;6248833;22;20019;-87
2022/10/29 01:23:07;;;;;;;324.70;14.68;;;;;;;;;;6256755;22;20086;-87
2022/10/29 01:26:18;;;;;;;401.90;14.52;;;12.40;99.90;;;;;;6230199;22;20051;-87
2022/10/29 01:29:10;;;;;;;232.48;11.23;;;;;;;;;;6263544;22;20019;-87
2022/10/29 01:32:20;;;;;;;167.77;11.23;;;;;;;;;;6271642;22;20024;-88
2022/10/29 01:35:12;;;;;;;251.48;13.50;;;;;;;;;;6269261;22;20070;-88
2022/10/29 01:38:18;;;;;;;293.80;15.85;;;;;;;;;;6265908;22;20438;-87
2022/10/29 01:41:10;;;;;;;230.57;15.30;;;;;;;;;;6243568;22;20481;-89
2022/10/29 01:43:59;;;;;;;239.02;17.13;;;;;;;;;;6241342;22;20026;-87
2022/10/29 01:46:43;;;;;;;205.40;17.10;;;;;;;;;;6239923;22;20348;-87
2022/10/29 01:49:14;;;;;;;201.88;15.98;;;;;;;;;;6217588;22;20399;-89
2022/10/29 01:52:05;;;;;;;163.00;15.63;;;;;;;;;;6216476;22;20035;-87
2022/10/29 01:54:31;;;;;;;197.00;17.20;;;;;;;;;;6271410;22;20073;-88
2022/10/29 01:57:28;;;;;;;157.05;18.42;;;;;;;;;;6243721;22;20016;-87
2022/10/29 01:59:59;;;;;;;127.60;16.58;;;;;;;;;;6268221;22;20019;-88
2022/10/29 02:02:35;;;;;;;149.15;17.23;;;;;;;;;;6243023;22;20398;-89
2022/10/29 02:05:04;;;;;;;115.47;17.90;;;;;;;;;;6214556;22;20364;-88
2022/10/29 02:07:40;;;;;;;112.15;19.50;;;;;;;;;;6243580;22;20070;-86
2022/10/29 02:10:25;;;;;;;134.32;21.73;;;;;;;;;;6268539;22;20022;-86
2022/10/29 02:12:54;;;;;;;102.82;16.60;;;;;;;;;;6240352;22;20020;-87
2022/10/29 02:15:35;;;;;;;152.15;19.50;;;;;;;;;;6218051;22;20038;-88
2022/10/29 02:18:05;;;;;;;203.65;21.33;;;;;;;;;;6213491;22;20020;-87
2022/10/29 02:20:31;;;;;;;270.52;21.58;;;;;;;;;;6269378;22;20023;-88
2022/10/29 02:22:58;;;;;;;224.65;18.40;;;;;;;;;;6240367;22;20027;-87
2022/10/29 02:25:36;;;;;;;257.73;17.85;;;;;;;;;;6243756;22;20024;-87
2022/10/29 02:28:05;;;;;;;333.00;20.95;;;;;;;;;;6267455;22;20023;-87
2022/10/29 02:30:47;;;;;;;243.93;18.48;;;;;;;;;;6269332;22;20011;-87
2022/10/29 02:33:13;;;;;;;308.23;20.75;;;;;;;;;;6243724;22;20102;-88
2022/10/29 02:35:39;;;;;;;247.57;19.88;;;;;;;;;;6269801;22;20016;-87
2022/10/29 02:38:08;;;;;;;255.85;18.20;;;;;;;;;;6243578;22;20047;-87
2022/10/29 02:40:40;;;;;;;305.25;20.83;;;;;;;;;;6237646;22;20020;-89
2022/10/29 02:43:07;;;;;;;286.90;20.90;;;;;;;;;;6218013;22;20024;-89
2022/10/29 02:45:33;;;;;;;270.52;18.05;;;;;;;;;;6267037;22;20020;-88
2022/10/29 02:48:05;;;;;;;386.10;22.23;;;;;;;;;;6269987;22;20772;-87
2022/10/29 02:50:37;;;;;;;264.35;20.27;;;;;;;;;;6215190;22;20102;-87
2022/10/29 02:53:06;;;;;;;270.35;20.30;;;;;;;;;;6241860;22;20022;-86
2022/10/29 02:55:33;;;;;;;283.40;19.30;;;;;;;;;;6213741;22;20517;-87
2022/10/29 02:58:11;;;;;;;152.82;18.67;;;;;;;;;;6240567;22;20105;-87
2022/10/29 03:00:37;;;;;;;332.92;19.90;;;;;;;;;;6267523;22;20030;-87
2022/10/29 03:03:23;;;;;;;345.13;22.27;;;;;;;;;;6267401;22;20015;-88
2022/10/29 03:05:49;;;;;;;269.95;19.63;;;;;;;;;;6269826;22;20103;-86
2022/10/29 03:11:01;;;;;;;196.32;16.25;;;;;;;;;;6251289;23;20028;-87
2022/10/29 03:13:33;;;;;;;163.57;17.48;;;;;;;;;;6232729;23;20008;-89
2022/10/29 03:16:11;;;;;;;125.07;17.92;;;;;;;;;;6226755;23;20024;-88
2022/10/29 03:25:51;;;;;;;304.02;20.02;;;;;;;;;;6278502;22;20030;-88
2022/10/29 03:31:37;;;;;;;332.70;25.02;;;;;;;;;;6232525;23;20500;-87
2022/10/29 03:34:03;;;;;;;369.00;24.77;;;;;;;;;;6235078;23;20016;-86
2022/10/29 03:36:29;;;;;;;324.55;23.13;;;;;;;;;;6253980;22;20019;-87
2022/10/29 03:38:55;;;;;;;321.58;24.10;;;;;;;;;;6249471;22;20118;-87
2022/10/29 03:41:22;;;;;;;329.83;24.60;;;;;;;;;;6245351;22;20486;-87
2022/10/29 03:43:48;;;;;;;243.45;23.25;;;;;;;;;;6221429;22;20327;-87
2022/10/29 03:46:14;;;;;;;295.63;22.80;;;;;;;;;;6218172;22;20023;-88
2022/10/29 03:48:40;;;;;;;266.63;22.52;;;;;;;;;;6219121;22;20094;-88
2022/10/29 03:51:06;;;;;;;263.73;21.73;;;;;;;;;;6219513;22;20467;-87
2022/10/29 03:53:34;;;;;;;222.90;22.85;;;;;;;;;;6247402;22;20106;-88
2022/10/29 03:56:00;;;;;;;147.90;19.95;;;;;;;;;;6269906;22;20100;-87
2022/10/29 03:58:26;;;;;;;166.32;21.13;;;;;;;;;;6245219;22;20343;-87
2022/10/29 04:01:02;;;;;;;162.88;18.40;;;;;;;;;;6298816;22;20016;-88
2022/10/29 04:03:29;;;;;;;199.68;18.75;;;;;;;;;;6242525;22;20494;-86
2022/10/29 04:05:56;;;;;;;203.93;21.65;;;;;;;;;;6248220;22;20615;-86
2022/10/29 04:08:22;;;;;;;189.27;22.50;;;;;;;;;;6219866;22;20464;-87
2022/10/29 04:10:49;;;;;;;248.43;21.33;;;;;;;;;;6248757;22;20023;-87
2022/10/29 04:15:54;;;;;;;293.55;23.27;;;;;;;;;;6299780;22;20027;-87
2022/10/29 04:18:39;;;;;;;224.98;20.30;;;;;;;;;;6273527;22;20019;-87
2022/10/29 04:21:20;;;;;;;;;;;;;;;;;;6273788;22;20089;-87
2022/10/29 04:24:11;;;;;;;220.73;17.83;;;;;;;;;;6248541;22;20384;-87
2022/10/29 04:26:38;;;;;;;208.65;16.33;;;;;;;;;;6246167;22;20022;-87
2022/10/29 04:29:10;;;;;;;392.65;21.45;;;;;;;;;;6273875;22;20015;-88
2022/10/29 04:31:42;;;;;;;311.20;18.65;;;;;;;;;;6270533;22;20023;-87
2022/10/29 04:34:08;;;;;;;260.02;17.63;;;;;;;;;;6247439;22;20015;-85
2022/10/29 04:36:34;;;;;;;310.73;20.08;;;;;;;;;;6223212;22;20019;-84
2022/10/29 04:39:09;;;;;;;176.63;14.57;;;;;;;;;;6271505;22;20076;-85
2022/10/29 04:41:36;;;;;;;189.80;15.80;;;;;;;;;;6274255;22;20029;-86
2022/10/29 04:44:02;;;;;;;142.45;16.58;;;;;;;;;;6297337;22;20524;-86
2022/10/29 04:46:28;;;;;;;289.40;18.13;;;;;;;;;;6301621;22;20026;-85
2022/10/29 04:48:54;;;;;;;269.15;21.08;;;;;;;;;;6271002;22;20019;-87
2022/10/29 04:51:25;;;;;;;302.40;19.40;;;;;;;;;;6248424;22;20030;-85
2022/10/29 04:53:51;;;;;;;296.45;18.85;;;;;;;;;;6270521;22;20019;-87
2022/10/29 04:56:18;;;;;;;227.25;18.13;;;;;;;;;;6303308;22;20019;-87
2022/10/29 04:58:44;;;;;;;284.27;20.70;;;;;;;;;;6256724;22;20071;-86
2022/10/29 05:01:10;;;;;;;264.48;17.23;;;;;;;;;;6289067;22;20053;-86
2022/10/29 05:06:39;;;;;;;81.63;13.60;;;;;;;;;;6308426;22;20022;-87
2022/10/29 05:09:06;;;;;;;73.97;13.50;;;;;;;;;;6251181;22;20100;-87
2022/10/29 05:11:32;;;;;;;76.40;15.57;;;;;;;;;;6247266;22;20030;-86
2022/10/29 05:14:13;;;;;;;48.83;13.23;;;;;;;;;;6275326;22;20019;-86
2022/10/29 05:17:07;;;;;;;122.60;16.35;;;;;;;;;;6238175;22;20033;-86
2022/10/29 05:20:11;;;;;;;88.13;13.38;;;;;;;;;;6217308;22;20016;-88
2022/10/29 05:23:09;;;;;;;164.65;15.73;;;;;;;;;;6269882;22;20023;-88
2022/10/29 05:26:15;;;;;;;126.75;16.20;;;;;;;;;;6240725;22;20340;-88
2022/10/29 05:28:41;;;;;;;123.95;14.80;;;;;;;;;;6243105;22;20027;-87
2022/10/29 05:31:26;;;;;;;111.13;14.80;;;;;;;;;;6217284;22;20050;-86
2022/10/29 05:37:15;;;;;;;97.60;15.45;;;;;;;;;;6272410;22;20455;-86
2022/10/29 05:39:41;;;;;;;109.43;15.07;;;;;;;;;;6238244;22;20020;-87
2022/10/29 05:42:07;;;;;;;205.30;18.52;;;;;;;;;;6269720;22;20732;-86
2022/10/29 05:44:33;;;;;;;188.13;17.67;;;;;;;;;;6239872;22;20589;-86
2022/10/29 05:46:59;;;;;;;139.90;16.42;;;;;;;;;;6270432;22;20022;-86
2022/10/29 05:49:25;;;;;;;104.20;15.40;;;;;;;;;;6242379;22;20460;-86
2022/10/29 05:51:51;;;;;;;155.23;16.45;;;;;;;;;;6190595;22;20102;-88
2022/10/29 05:54:18;;;;;;;99.65;14.98;;;;;;;;;;6190109;22;20024;-87
2022/10/29 06:00:35;;;;;;;91.35;13.18;;;;;;;;;;6206527;23;20028;-88
2022/10/29 06:03:17;;;;;;;100.07;14.68;;;;;;;;;;6161402;22;20394;-86
2022/10/29 06:05:43;;;;;;;120.70;15.43;;;;;;;;;;6268572;22;20071;-88
2022/10/29 06:08:09;;;;;;;130.93;15.00;;;;;;;;;;6246015;22;20073;-87
2022/10/29 06:10:36;;;;;;;88.32;13.32;;;;;;;;;;6271057;22;20027;-87
2022/10/29 06:13:02;;;;;;;74.85;13.88;;;;;;;;;;6245268;22;20039;-87
2022/10/29 06:15:28;;;;;;;104.38;14.57;;;;;;;;;;6219835;22;20015;-88
2022/10/29 06:17:54;;;;;;;119.85;14.05;;;;;;;;;;6220108;22;20483;-88
2022/10/29 06:20:20;;;;;;;159.77;15.57;;;;;;;;;;6273641;22;20321;-88
2022/10/29 06:22:46;;;;;;;130.32;13.93;;;;;;;;;;6271822;22;20027;-87
2022/10/29 06:25:19;;;;;;;85.45;13.10;;;;;;;;;;6248314;22;20015;-87
2022/10/29 06:28:17;;;;;;;93.18;13.02;;;;;;;;;;6244357;22;20116;-87
2022/10/29 06:30:59;;;;;;;125.85;12.85;;;;;;;;;;6271700;22;20047;-86
2022/10/29 06:33:25;;;;;;;88.68;13.23;;;;;;;;;;6244156;22;20023;-86
2022/10/29 06:35:59;;;;;;;105.13;15.15;;;;;;;;;;6244276;22;20020;-89
2022/10/29 06:38:25;;;;;;;88.65;14.25;;;;;;;;;;6268173;22;20023;-90
2022/10/29 06:40:52;;;;;;;119.20;16.63;;;;;;;;;;6220394;22;20475;-88
2022/10/29 06:43:33;;;;;;;154.68;18.73;;;;;;;;;;6273124;22;20391;-91
2022/10/29 06:46:52;;;;;;;152.60;18.85;;;12.60;99.90;;;;;;6251274;22;20026;-93
2022/10/29 07:03:48;;;;;;;171.98;19.15;;;;;;;;;;6274978;22;20030;-88
2022/10/29 07:06:33;;;;;;;127.60;17.33;;;;;;;;;;6221962;22;20024;-91
2022/10/29 07:11:51;;;;;;;145.95;18.65;;;;;;;;;;6276065;22;20071;-90
2022/10/29 07:24:41;;;;;;;73.38;14.40;;;;;;;;;;6301660;22;20119;-88
2022/10/29 07:27:08;;;;;;;110.60;14.70;;;;;;;;;;6225961;22;20019;-86
2022/10/29 07:29:34;;;;;;;81.10;13.73;;;;;;;;;;6249318;22;20019;-92
2022/10/29 07:32:00;;;;;;;106.10;15.15;;;;;;;;;;6253738;22;20022;-90
2022/10/29 07:34:26;;;;;;;138.45;16.60;;;;;;;;;;6303645;22;20035;-92
2022/10/29 07:36:52;;;;;;;127.70;16.25;;;;;;;;;;6227158;22;20019;-94
2022/10/29 07:39:18;;;;;;;103.97;14.98;;;;;;;;;;6305830;22;20066;-93
2022/10/29 07:41:44;;;;;;;135.98;16.73;;;;;;;;;;6305256;22;20395;-89
2022/10/29 07:44:31;;;;;;;101.35;16.25;;;;;;;;;;6276992;22;20336;-88
2022/10/29 07:46:58;;;;;;;67.78;15.48;;;;;;;;;;6272518;22;20117;-87
2022/10/29 07:55:35;;;;;;;72.63;17.17;;;;;;;;;;6300830;22;20014;-88
2022/10/29 07:58:03;;;;;;;92.60;17.30;;;;;;;;;;6248154;22;20413;-90
2022/10/29 08:06:42;;;;;;;95.00;20.95;;;;;;;;;;6272881;22;20103;-88
2022/10/29 08:12:24;;;;;;;100.07;21.08;;;;;;;;;;6273220;22;20022;-89
2022/10/29 08:18:28;;;;;;;100.18;21.95;;;13.30;99.90;;;;;;6245386;22;20024;-89
2022/10/29 08:21:06;;;;;;;100.33;22.00;;;;;;;;;;6252568;22;20024;-90
2022/10/29 08:23:35;;;;;;;72.95;21.95;;;;;;;;;;6245916;22;20020;-90
2022/10/29 08:26:20;;;;;;;98.65;24.55;;;;;;;;;;6243283;22;20150;-89
2022/10/29 08:28:52;;;;;;;85.15;23.30;;;;;;;;;;6246099;22;20491;-91
2022/10/29 08:31:31;;;;;;;81.15;24.45;;;;;;;;;;6222247;22;20091;-90
2022/10/29 08:34:06;;;;;;;75.50;23.17;;;;;;;;;;6247449;22;20043;-92
2022/10/29 08:45:59;;;;;;;142.25;29.23;;;;;;;;;;6269015;22;20034;-92
2022/10/29 10:37:01;;;;;;;106.65;38.67;;;;;;;;;;6309933;22;20080;-90
2022/10/29 10:42:31;;;;;;;95.45;37.78;;;;;;;;;;6306419;22;20023;-90
2022/10/29 11:06:25;;;;;;;78.78;36.88;;;15.80;99.90;;;;;;6277977;22;20089;-91
2022/10/29 11:09:11;;;;;;;81.22;37.08;;;;;;;;;;6247849;22;20023;-87
2022/10/29 11:12:10;;;;;;;79.30;34.47;;;;;;;;;;6276921;22;20035;-88
2022/10/29 11:14:45;;;;;;;74.40;34.88;;;;;;;;;;6126743;23;20119;-90
2022/10/29 11:17:30;;;;;;;70.10;31.80;;;;;;;;;;6126566;23;20033;-89
2022/10/29 11:20:13;;;;;;;75.68;32.15;;;;;;;;;;6230996;22;20024;-88
2022/10/29 11:22:53;;;;;;;64.25;31.48;;;;;;;;;;6246203;22;20016;-88
2022/10/29 11:25:23;;;;;;;61.60;28.83;;;;;;;;;;6247214;22;20073;-87
2022/10/29 11:28:14;;;;;;;67.53;28.58;;;;;;;;;;6245002;22;20012;-88
2022/10/29 11:30:51;;;;;;;75.75;31.80;;;;;;;;;;6275081;22;20074;-89
2022/10/29 11:33:17;;;;;;;72.43;32.80;;;;;;;;;;6272579;22;20616;-88
2022/10/29 11:35:50;;;;;;;79.03;32.70;;;;;;;;;;6251334;22;20019;-87
2022/10/29 11:38:26;;;;;;;69.68;32.00;;;;;;;;;;6249991;22;20028;-88
2022/10/29 11:41:22;;;;;;;85.40;33.72;;;;;;;;;;6228446;22;20383;-88
2022/10/29 11:44:02;;;;;;;72.75;33.00;;;;;;;;;;6237246;22;20028;-90
2022/10/29 11:46:41;;;;;;;69.85;33.58;;;;;;;;;;6247869;22;20042;-89
2022/10/29 11:49:07;;;;;;;76.55;35.08;;;;;;;;;;6223687;22;20035;-89
2022/10/29 11:52:06;;;;;;;66.13;33.35;;;;;;;;;;6221226;22;20035;-88
2022/10/29 11:54:32;;;;;;;70.82;33.28;;;;;;;;;;6274475;22;20027;-87
2022/10/29 11:57:08;;;;;;;60.70;31.10;;;;;;;;;;6250546;22;20031;-90
2022/10/29 11:59:34;;;;;;;57.28;30.73;;;;;;;;;;6273800;22;20460;-90
2022/10/29 12:02:22;;;;;;;60.00;31.83;;;;;;;;;;6274363;22;20026;-90
2022/10/29 12:05:00;;;;;;;59.47;29.48;;;;;;;;;;6247557;22;20024;-89
2022/10/29 12:11:37;;;;;;;55.17;26.55;;;;;;;;;;6279676;22;20054;-88
2022/10/29 12:14:32;;;;;;;50.78;26.55;;;;;;;;;;6139335;23;20100;-92
2022/10/29 12:17:04;;;;;;;54.00;27.20;;;;;;;;;;6198963;22;20027;-88
2022/10/29 12:19:45;;;;;;;56.95;27.00;;;;;;;;;;6282424;22;20050;-89
2022/10/29 12:26:31;;;;;;;56.13;27.80;;;;;;;;;;6275795;22;20028;-89
2022/10/29 12:29:15;;;;;;;48.45;26.60;;;;;;;;;;6252985;22;20026;-91
2022/10/29 12:32:20;;;;;;;49.85;28.42;;;16.50;99.90;;;;;;6237506;22;20023;-89
2022/10/29 12:35:12;;;;;;;55.03;29.08;;;;;;;;;;6251838;22;20055;-89
2022/10/29 12:37:41;;;;;;;53.03;28.13;;;;;;;;;;6280229;22;20031;-89
2022/10/29 12:40:23;;;;;;;53.10;27.92;;;;;;;;;;6224215;22;20016;-91
2022/10/29 12:42:50;;;;;;;52.00;26.75;;;;;;;;;;6227853;22;20028;-89
2022/10/29 12:45:29;;;;;;;;;;;;;;;;;;;;;
2022/10/29 12:48:16;;;;;;;43.88;24.70;;;;;;;;;;6256802;22;20015;-90
2022/10/29 12:51:01;;;;;;;48.22;24.30;;;;;;;;;;6253130;22;20020;-91
2022/10/29 12:53:53;;;;;;;42.55;24.48;;;;;;;;;;6248892;22;20030;-89
2022/10/29 12:56:38;;;;;;;33.67;20.50;;;;;;;;;;6187347;22;20078;-90
2022/10/29 12:59:23;;;;;;;44.72;22.98;;;;;;;;;;6250640;22;20023;-89
2022/10/29 13:01:53;;;;;;;44.60;20.85;;;;;;;;;;6253246;22;20050;-87
2022/10/29 13:04:29;;;;;;;36.58;21.33;;;;;;;;;;6280235;22;20078;-90
2022/10/29 13:06:57;;;;;;;39.70;21.35;;;;;;;;;;6265400;22;20027;-89
2022/10/29 13:09:24;;;;;;;40.70;21.83;;;;;;;;;;6253164;22;20027;-89
2022/10/29 13:12:10;;;;;;;36.78;19.45;;;;;;;;;;6280671;22;20023;-90
2022/10/29 13:17:51;;;;;;;35.40;18.73;;;;;;;;;;6280513;22;20368;-88
2022/10/29 13:20:21;;;;;;;33.03;18.98;;;;;;;;;;6280960;22;20027;-90
2022/10/29 13:23:18;;;;;;;40.00;19.10;;;;;;;;;;6275942;22;20382;-90
2022/10/29 13:25:53;;;;;;;39.75;19.13;;;;;;;;;;6227340;22;20024;-91
2022/10/29 13:28:37;;;;;;;41.22;18.48;;;;;;;;;;6279670;22;20062;-90
2022/10/29 13:31:03;;;;;;;;;;;;;;;;;;6275853;22;20030;-89
2022/10/29 13:33:41;;;;;;;36.13;18.77;;;;;;;;;;6273160;22;19919;-90
2022/10/29 13:36:19;;;;;;;27.27;17.52;;;;;;;;;;6277099;22;20103;-90
2022/10/29 13:38:52;;;;;;;37.20;18.92;;;;;;;;;;6248936;22;20379;-90
2022/10/29 13:41:52;;;;;;;29.13;17.80;;;;;;;;;;6276817;22;20537;-89
2022/10/29 13:44:23;;;;;;;37.55;17.58;;;;;;;;;;6275623;22;20020;-90
2022/10/29 13:46:49;;;;;;;39.78;17.80;;;;;;;;;;6249911;22;20028;-90
2022/10/29 13:49:32;;;;;;;33.90;17.90;;;;;;;;;;6246293;22;20843;-90
2022/10/29 13:52:18;;;;;;;30.67;18.77;;;;;;;;;;6275592;22;20020;-90
2022/10/29 13:58:07;;;;;;;34.22;18.30;;;;;;;;;;6274807;22;20024;-90
2022/10/29 14:00:35;;;;;;;37.03;18.80;;;;;;;;;;6272290;22;20068;-90
2022/10/29 14:03:27;;;;;;;36.30;18.50;;;;;;;;;;6265224;22;20023;-92
2022/10/29 14:06:02;;;;;;;35.28;18.25;;;;;;;;;;6296196;22;20043;-91
2022/10/29 14:08:31;;;;;;;37.42;17.90;;;;;;;;;;6258201;22;20034;-87
2022/10/29 14:10:58;;;;;;;28.75;17.73;;;;;;;;;;6280031;22;20019;-91
2022/10/29 14:13:45;;;;;;;32.83;17.75;;;;;;;;;;6276700;22;20336;-89
2022/10/29 14:16:22;;;;;;;;;;;;;;;;;;;;;
2022/10/29 14:18:57;;;;;;;29.85;18.50;;;;;;;;;;6304721;22;20015;-89
2022/10/29 14:21:37;;;;;;;39.95;18.08;;;;;;;;;;6278729;22;20730;-89
2022/10/29 14:24:05;;;;;;;28.35;18.08;;;;;;;;;;6276303;22;20085;-89
2022/10/29 14:26:43;;;;;;;28.38;18.05;;;;;;;;;;6306770;22;20015;-90
2022/10/29 14:29:22;;;;;;;28.45;17.85;;;;;;;;;;6304080;22;20135;-91
2022/10/29 14:32:03;;;;;;;32.45;19.48;;;;;;;;;;6305203;22;20023;-91
2022/10/29 14:34:31;;;;;;;34.53;18.55;;;;;;;;;;6302769;22;20019;-90
2022/10/29 14:40:40;;;;;;;34.35;19.13;;;;;;;;;;6305421;22;20023;-91
2022/10/29 14:43:29;;;;;;;36.67;20.23;;;;;;;;;;6240141;22;20022;-89
2022/10/29 14:46:26;;;;;;;37.15;19.25;;;;;;;;;;6243808;22;20020;-92
2022/10/29 14:51:52;;;;;;;34.65;19.48;;;;;;;;;;6246187;22;20024;-90
2022/10/29 14:54:21;;;;;;;38.80;18.65;;;;;;;;;;6242674;22;20050;-91
2022/10/29 14:56:48;;;;;;;39.75;20.88;;;;;;;;;;6244711;22;20060;-89
2022/10/29 14:59:33;;;;;;;34.33;19.80;;;;;;;;;;6241513;22;20020;-90
2022/10/29 15:02:14;;;;;;;33.35;19.40;;;;;;;;;;6244402;22;20023;-90
2022/10/29 15:04:56;;;;;;;33.65;19.98;;;;;;;;;;6269585;22;20035;-91
2022/10/29 15:07:34;;;;;;;31.58;20.08;;;;;;;;;;6251511;22;20089;-90
2022/10/29 15:10:38;;;;;;;45.55;19.88;;;;;;;;;;6274031;22;20476;-88
2022/10/29 15:13:45;;;;;;;41.20;20.48;;;;;;;;;;6248483;22;20022;-92
2022/10/29 15:16:28;;;;;;;30.77;18.25;;;;;;;;;;6280116;22;20130;-89
2022/10/29 15:22:23;;;;;;;38.90;19.38;;;;;;;;;;6273428;22;20099;-92
2022/10/29 15:28:33;;;;;;;36.35;20.73;;;;;;;;;;6272186;22;20061;-88
2022/10/29 15:31:03;;;;;;;38.22;19.25;;;;;;;;;;6190350;22;20020;-89
2022/10/29 15:33:35;;;;;;;40.15;20.63;;;;;;;;;;6270926;22;20023;-90
2022/10/29 15:36:26;;;;;;;40.70;19.92;;;;;;;;;;6274151;22;20051;-89
2022/10/29 15:39:28;;;;;;;37.42;20.15;;;;;;;;;;6273132;22;20154;-90
2022/10/29 15:42:14;;;;;;;39.80;21.35;;;;;;;;;;6155178;23;20017;-88
2022/10/29 15:44:40;;;;;;;43.92;22.13;;;;;;;;;;6268910;22;20034;-88
2022/10/29 15:47:28;;;;;;;45.42;22.05;;;;;;;;;;6271580;22;20047;-87
2022/10/29 15:50:06;;;;;;;44.20;22.98;;;;;;;;;;6287610;22;20030;-89
2022/10/29 15:52:36;;;;;;;43.28;22.02;;;;;;;;;;6293527;22;20028;-88
2022/10/29 15:55:09;;;;;;;33.10;19.80;;;;;;;;;;6289895;22;20032;-89
2022/10/29 15:57:39;;;;;;;30.92;19.85;;;;;;;;;;6284856;22;20504;-90
2022/10/29 16:00:06;;;;;;;40.03;21.63;;;;;;;;;;6252582;22;20038;-90
2022/10/29 16:03:04;;;;;;;41.60;21.02;;;;;;;;;;6227682;22;20107;-91
2022/10/29 16:05:31;;;;;;;39.83;20.13;;;;;;;;;;6198903;22;20024;-88
2022/10/29 16:07:58;;;;;;;35.88;20.77;;;;;;;;;;6274621;22;20061;-89
2022/10/29 16:10:40;;;;;;;45.20;22.52;;;;;;;;;;6275008;22;20011;-88
2022/10/29 16:13:25;;;;;;;41.63;21.45;;;;;;;;;;6274795;22;20016;-88
2022/10/29 16:16:02;;;;;;;43.78;21.65;;;;;;;;;;6276168;22;20020;-89
2022/10/29 16:21:20;;;;;;;39.33;25.27;;;;;;;;;;6307725;22;20025;-89
2022/10/29 16:23:46;;;;;;;48.80;26.65;;;;;;;;;;6254410;22;20057;-87
2022/10/29 16:29:18;;;;;;;;;;;;;;;;;;;;;
2022/10/29 16:33:00;;;;;;;38.40;24.60;;;15.60;99.90;;;;;;6218671;23;20507;-87
2022/10/29 16:35:51;;;;;;;34.35;21.15;;;;;;;;;;6217303;23;20107;-89
2022/10/29 16:38:18;;;;;;;45.85;22.15;;;;;;;;;;6192988;23;20444;-88
2022/10/29 16:40:46;;;;;;;37.38;20.92;;;;;;;;;;6217629;23;20016;-87
2022/10/29 16:43:12;;;;;;;36.38;21.38;;;;;;;;;;6220101;23;20020;-88
2022/10/29 16:45:38;;;;;;;41.20;22.42;;;;;;;;;;6218211;23;20024;-88
2022/10/29 16:48:05;;;;;;;43.22;23.05;;;;;;;;;;6194913;23;20809;-86
2022/10/29 16:50:34;;;;;;;39.33;24.17;;;;;;;;;;6192821;23;20027;-87
2022/10/29 16:53:16;;;;;;;40.42;24.45;;;;;;;;;;6219018;23;20031;-89
2022/10/29 16:55:42;;;;;;;49.72;26.45;;;;;;;;;;6193375;23;20479;-87
2022/10/29 16:58:10;;;;;;;45.45;25.10;;;;;;;;;;6170090;23;20019;-86
2022/10/29 17:00:37;;;;;;;43.17;25.65;;;;;;;;;;6244888;23;20092;-89
2022/10/29 17:03:10;;;;;;;42.50;26.13;;;;;;;;;;6195310;23;20445;-87
2022/10/29 17:05:51;;;;;;;51.78;27.50;;;;;;;;;;6245406;23;20020;-88
2022/10/29 17:08:34;;;;;;;46.15;25.35;;;;;;;;;;6193775;23;20551;-88
2022/10/29 17:11:02;;;;;;;40.67;23.85;;;;;;;;;;6190474;23;20421;-88
2022/10/29 17:13:29;;;;;;;44.65;23.60;;;;;;;;;;6195673;23;20174;-88
2022/10/29 17:15:55;;;;;;;45.53;24.58;;;;;;;;;;6218722;23;20024;-89
2022/10/29 17:18:36;;;;;;;44.30;23.95;;;;;;;;;;6219373;23;20026;-90
2022/10/29 17:21:08;;;;;;;45.97;23.88;;;;;;;;;;6244456;23;20447;-90
2022/10/29 17:23:44;;;;;;;51.65;21.90;;;;;;;;;;6249942;23;20095;-89
2022/10/29 17:26:22;;;;;;;44.95;22.40;;;;;;;;;;6249174;23;20519;-90
2022/10/29 17:31:31;;;;;;;51.67;25.58;;;;;;;;;;6279361;22;20111;-86
2022/10/29 17:33:57;;;;;;;42.08;25.00;;;;;;;;;;6221409;22;20523;-88
2022/10/29 17:36:24;;;;;;;41.08;22.60;;;;;;;;;;6247530;22;20031;-87
2022/10/29 17:39:09;;;;;;;49.00;25.17;;;16.00;99.90;;;;;;6263268;22;20041;-90
2022/10/29 17:41:38;;;;;;;42.50;23.92;;;;;;;;;;6268968;22;20406;-89
2022/10/29 17:50:01;;;;;;;37.95;21.45;;;;;;;;;;6127605;23;20431;-90
2022/10/29 17:52:27;;;;;;;37.90;20.60;;;;;;;;;;6127855;23;20399;-88
2022/10/29 17:54:53;;;;;;;35.47;17.65;;;;;;;;;;6192467;22;20016;-90
2022/10/29 17:57:50;;;;;;;33.75;17.95;;;;;;;;;;6225007;22;20016;-89
2022/10/29 18:00:22;;;;;;;36.58;17.92;;;;;;;;;;6276096;22;20027;-89
2022/10/29 18:02:51;;;;;;;37.45;17.55;;;;;;;;;;6275057;22;20326;-90
2022/10/29 18:05:24;;;;;;;35.10;18.40;;;;;;;;;;6275678;22;20018;-91
2022/10/29 18:08:09;;;;;;;42.92;17.67;;;;;;;;;;6275223;22;20077;-89
2022/10/29 18:10:56;;;;;;;29.13;16.17;;;;;;;;;;6248482;22;20023;-90
2022/10/29 18:13:38;;;;;;;33.95;16.17;;;;;;;;;;6222788;22;20019;-90
2022/10/29 18:16:20;;;;;;;33.53;16.17;;;;;;;;;;6274974;22;20020;-88
2022/10/29 18:18:47;;;;;;;28.00;16.48;;;;;;;;;;6223094;22;20028;-87
2022/10/29 18:21:14;;;;;;;31.05;16.90;;;;;;;;;;6275511;22;20019;-88
2022/10/29 18:23:53;;;;;;;29.58;17.02;;;;;;;;;;6247822;22;20069;-89
2022/10/29 18:26:41;;;;;;;28.23;16.85;;;;;;;;;;6223082;22;20029;-89
2022/10/29 18:29:16;;;;;;;30.25;17.52;;;;;;;;;;6248121;22;20026;-89
2022/10/29 18:32:01;;;;;;;34.53;19.67;;;;;;;;;;6250598;22;20046;-90
2022/10/29 18:34:45;;;;;;;37.92;22.60;;;;;;;;;;6275622;22;20058;-88
2022/10/29 18:37:20;;;;;;;;;;;16.30;99.90;;;;;;6250917;22;20059;-91
2022/10/29 18:39:55;;;;;;;41.45;23.20;;;;;;;;;;6229040;22;19915;-91
2022/10/29 18:42:28;;;;;;;40.72;23.52;;;;;;;;;;6283622;22;20015;-91
2022/10/29 18:45:13;;;;;;;34.63;20.27;;;;;;;;;;6229101;22;20023;-91
2022/10/29 18:47:39;;;;;;;29.15;16.52;;;;;;;;;;6231404;22;20031;-92
2022/10/29 18:50:24;;;;;;;32.97;16.90;;;;;;;;;;6230732;22;20075;-89
2022/10/29 18:52:51;;;;;;;31.52;16.40;;;;;;;;;;6231061;22;20047;-92
2022/10/29 18:55:17;;;;;;;31.27;16.55;;;;;;;;;;6228000;22;20497;-90
2022/10/29 18:57:43;;;;;;;33.97;16.95;;;;;;;;;;6203278;22;20075;-88
2022/10/29 19:00:21;;;;;;;34.53;17.70;;;;;;;;;;6243682;22;20019;-91
2022/10/29 19:02:48;;;;;;;33.58;21.58;;;;;;;;;;6220524;22;20099;-87
2022/10/29 19:08:22;;;;;;;64.28;43.45;;;;;;;;;;6272507;22;20023;-87
2022/10/29 19:11:29;;;;;;;51.42;28.27;;;;;;;;;;6244644;22;20020;-88
2022/10/29 19:13:56;;;;;;;54.35;34.33;;;;;;;;;;6242212;22;20102;-88
2022/10/29 19:16:29;;;;;;;69.95;47.30;;;;;;;;;;6221023;22;20066;-91
2022/10/29 19:19:07;;;;;;;45.72;29.00;;;;;;;;;;6243346;22;20020;-88